createdAt,value
2017-01-29T00:00:15.301Z,1017.34
2017-01-29T00:00:40.881Z,1017.34
2017-01-29T00:01:06.484Z,1017.33
2017-01-29T05:00:48.171Z,1018.37
2017-01-29T05:01:13.879Z,1018.38
2017-01-29T05:01:39.571Z,1018.38
2017-01-29T05:02:05.169Z,1018.39
2017-01-29T05:02:30.760Z,1018.41
2017-01-29T05:03:44.177Z,1018.41
2017-01-29T05:04:09.745Z,1018.43
2017-01-29T05:04:35.316Z,1018.41
2017-01-29T05:05:00.950Z,1018.43
2017-01-29T05:05:26.596Z,1018.45
2017-01-29T05:05:52.157Z,1018.41
2017-01-29T05:06:17.783Z,1018.45
2017-01-29T05:06:43.353Z,1018.45
2017-01-29T05:07:09.006Z,1018.47
2017-01-29T05:07:34.587Z,1018.42
2017-01-29T05:08:00.172Z,1018.41
2017-01-29T05:08:25.923Z,1018.44
2017-01-29T05:08:51.780Z,1018.4
2017-01-29T05:09:17.339Z,1018.38
2017-01-29T05:09:43.010Z,1018.31
2017-01-29T05:10:08.664Z,1018.32
2017-01-29T05:10:34.221Z,1018.36
2017-01-29T05:10:59.789Z,1018.31
2017-01-29T05:11:25.338Z,1018.32
2017-01-29T05:11:51.050Z,1018.31
2017-01-29T05:12:16.635Z,1018.32
2017-01-29T05:12:42.190Z,1018.29
2017-01-29T05:13:07.872Z,1018.24
2017-01-29T05:13:33.479Z,1018.28
2017-01-29T05:13:59.261Z,1018.29
2017-01-29T05:14:24.922Z,1018.26
2017-01-29T05:14:50.477Z,1018.25
2017-01-29T05:15:16.052Z,1018.3
2017-01-29T05:15:41.712Z,1018.28
2017-01-29T05:16:07.288Z,1018.3
2017-01-29T05:16:32.981Z,1018.3
2017-01-29T05:16:58.544Z,1018.28
2017-01-29T05:17:24.424Z,1018.35
2017-01-29T05:17:50.167Z,1018.34
2017-01-29T05:18:15.739Z,1018.36
2017-01-29T05:18:41.325Z,1018.38
2017-01-29T05:19:07.071Z,1018.38
2017-01-29T05:19:32.621Z,1018.36
2017-01-29T05:19:58.219Z,1018.39
2017-01-29T05:20:23.793Z,1018.37
2017-01-29T05:20:49.399Z,1018.37
2017-01-29T05:21:15.053Z,1018.34
2017-01-29T05:21:40.636Z,1018.4
2017-01-29T05:22:06.234Z,1018.36
2017-01-29T05:22:31.821Z,1018.41
2017-01-29T05:22:57.377Z,1018.34
2017-01-29T05:23:23.018Z,1018.35
2017-01-29T05:23:48.572Z,1018.33
2017-01-29T05:24:15.093Z,1018.32
2017-01-29T05:24:40.685Z,1018.32
2017-01-29T05:25:06.293Z,1018.32
2017-01-29T05:25:31.878Z,1018.34
2017-01-29T05:25:57.437Z,1018.28
2017-01-29T05:26:23.037Z,1018.3
2017-01-29T05:26:48.580Z,1018.29
2017-01-29T05:27:14.139Z,1018.33
2017-01-29T05:27:39.735Z,1018.32
2017-01-29T05:28:05.389Z,1018.28
2017-01-29T05:28:30.975Z,1018.3
2017-01-29T05:28:56.537Z,1018.28
2017-01-29T05:29:22.194Z,1018.26
2017-01-29T05:29:47.730Z,1018.29
2017-01-29T05:30:13.433Z,1018.32
2017-01-29T05:30:38.991Z,1018.32
2017-01-29T05:31:04.547Z,1018.33
2017-01-29T05:31:30.251Z,1018.3
2017-01-29T05:31:55.924Z,1018.31
2017-01-29T05:32:21.524Z,1018.33
2017-01-29T05:32:47.257Z,1018.37
2017-01-29T05:33:12.826Z,1018.32
2017-01-29T05:33:38.507Z,1018.37
2017-01-29T05:34:04.155Z,1018.35
2017-01-29T05:34:29.743Z,1018.34
2017-01-29T05:34:55.413Z,1018.4
2017-01-29T05:35:21.062Z,1018.35
2017-01-29T05:35:46.622Z,1018.37
2017-01-29T05:36:12.266Z,1018.34
2017-01-29T05:36:37.815Z,1018.37
2017-01-29T05:37:03.462Z,1018.37
2017-01-29T05:37:29.203Z,1018.41
2017-01-29T05:37:55.040Z,1018.36
2017-01-29T05:38:20.682Z,1018.4
2017-01-29T05:38:46.462Z,1018.43
2017-01-29T05:39:12.072Z,1018.39
2017-01-29T05:39:37.641Z,1018.42
2017-01-29T05:40:03.255Z,1018.35
2017-01-29T05:40:28.842Z,1018.34
2017-01-29T05:40:54.471Z,1018.4
2017-01-29T05:41:20.079Z,1018.38
2017-01-29T05:41:45.662Z,1018.38
2017-01-29T05:42:11.395Z,1018.36
2017-01-29T05:42:36.959Z,1018.34
2017-01-29T05:43:02.622Z,1018.37
2017-01-29T05:43:28.294Z,1018.35
2017-01-29T05:43:53.857Z,1018.33
2017-01-29T05:44:19.517Z,1018.37
2017-01-29T05:44:45.175Z,1018.37
2017-01-29T05:45:10.749Z,1018.36
2017-01-29T05:45:36.354Z,1018.39
2017-01-29T05:46:01.909Z,1018.36
2017-01-29T05:46:27.603Z,1018.41
2017-01-29T05:46:53.286Z,1018.43
2017-01-29T05:47:18.839Z,1018.38
2017-01-29T05:47:44.481Z,1018.37
2017-01-29T05:48:10.102Z,1018.39
2017-01-29T05:48:35.717Z,1018.37
2017-01-29T05:49:01.403Z,1018.4
2017-01-29T05:49:26.947Z,1018.43
2017-01-29T05:49:53.671Z,1018.43
2017-01-29T05:50:19.387Z,1018.42
2017-01-29T05:50:44.949Z,1018.41
2017-01-29T05:51:10.528Z,1018.41
2017-01-29T05:51:36.099Z,1018.39
2017-01-29T05:52:01.767Z,1018.45
2017-01-29T05:52:27.893Z,1018.42
2017-01-29T05:52:53.496Z,1018.41
2017-01-29T05:53:19.093Z,1018.4
2017-01-29T05:53:44.751Z,1018.39
2017-01-29T05:54:10.325Z,1018.42
2017-01-29T05:54:35.873Z,1018.39
2017-01-29T05:55:01.456Z,1018.4
2017-01-29T05:55:27.010Z,1018.41
2017-01-29T05:55:52.653Z,1018.42
2017-01-29T05:56:18.346Z,1018.39
2017-01-29T05:56:44.133Z,1018.42
2017-01-29T05:57:09.723Z,1018.38
2017-01-29T05:57:35.348Z,1018.39
2017-01-29T05:58:00.938Z,1018.42
2017-01-29T05:58:26.540Z,1018.42
2017-01-29T05:58:52.086Z,1018.4
2017-01-29T05:59:17.658Z,1018.38
2017-01-29T05:59:43.222Z,1018.37
2017-01-29T06:00:08.875Z,1018.36
2017-01-29T06:00:34.439Z,1018.39
2017-01-29T06:01:00.081Z,1018.38
2017-01-29T06:01:25.693Z,1018.36
2017-01-29T06:01:51.258Z,1018.36
2017-01-29T06:02:16.897Z,1018.36
2017-01-29T06:02:42.569Z,1018.33
2017-01-29T06:03:08.273Z,1018.33
2017-01-29T06:03:33.933Z,1018.32
2017-01-29T06:03:59.584Z,1018.33
2017-01-29T06:04:25.162Z,1018.34
2017-01-29T06:04:50.814Z,1018.31
2017-01-29T06:05:16.348Z,1018.3
2017-01-29T06:05:41.948Z,1018.26
2017-01-29T06:06:07.650Z,1018.32
2017-01-29T06:06:33.209Z,1018.31
2017-01-29T06:06:58.884Z,1018.3
2017-01-29T06:07:25.278Z,1018.34
2017-01-29T06:07:51.665Z,1018.34
2017-01-29T06:08:17.256Z,1018.33
2017-01-29T06:08:42.900Z,1018.38
2017-01-29T06:09:08.575Z,1018.34
2017-01-29T06:09:34.138Z,1018.38
2017-01-29T06:09:59.843Z,1018.33
2017-01-29T06:10:25.518Z,1018.33
2017-01-29T06:10:51.061Z,1018.39
2017-01-29T06:11:16.712Z,1018.34
2017-01-29T06:11:42.312Z,1018.34
2017-01-29T06:12:07.865Z,1018.33
2017-01-29T06:12:33.418Z,1018.33
2017-01-29T06:12:59.085Z,1018.32
2017-01-29T06:13:24.823Z,1018.36
2017-01-29T06:13:50.411Z,1018.31
2017-01-29T06:14:15.984Z,1018.38
2017-01-29T06:14:41.674Z,1018.33
2017-01-29T06:15:07.253Z,1018.36
2017-01-29T06:15:32.893Z,1018.4
2017-01-29T06:15:58.446Z,1018.36
2017-01-29T06:16:24.185Z,1018.38
2017-01-29T06:16:49.855Z,1018.36
2017-01-29T06:17:15.419Z,1018.43
2017-01-29T06:17:41.047Z,1018.35
2017-01-29T06:18:06.691Z,1018.37
2017-01-29T06:18:32.278Z,1018.38
2017-01-29T06:18:57.821Z,1018.35
2017-01-29T06:19:23.399Z,1018.37
2017-01-29T06:19:49.061Z,1018.38
2017-01-29T06:20:14.695Z,1018.39
2017-01-29T06:20:40.260Z,1018.39
2017-01-29T06:21:05.911Z,1018.44
2017-01-29T06:21:31.511Z,1018.43
2017-01-29T06:21:57.131Z,1018.46
2017-01-29T06:22:22.912Z,1018.43
2017-01-29T06:22:48.479Z,1018.45
2017-01-29T06:23:14.143Z,1018.48
2017-01-29T06:23:40.261Z,1018.46
2017-01-29T06:24:05.946Z,1018.42
2017-01-29T06:24:31.535Z,1018.47
2017-01-29T06:24:57.175Z,1018.46
2017-01-29T06:25:22.826Z,1018.42
2017-01-29T06:25:48.390Z,1018.42
2017-01-29T06:26:14.034Z,1018.44
2017-01-29T06:26:39.617Z,1018.42
2017-01-29T06:27:05.224Z,1018.43
2017-01-29T06:27:30.840Z,1018.46
2017-01-29T06:27:56.408Z,1018.46
2017-01-29T06:28:22.099Z,1018.46
2017-01-29T06:28:47.648Z,1018.46
2017-01-29T06:29:13.301Z,1018.47
2017-01-29T06:29:38.979Z,1018.49
2017-01-29T06:30:04.619Z,1018.45
2017-01-29T06:30:30.243Z,1018.46
2017-01-29T06:30:56.493Z,1018.51
2017-01-29T06:31:22.138Z,1018.49
2017-01-29T06:31:47.680Z,1018.47
2017-01-29T06:32:13.411Z,1018.51
2017-01-29T06:32:39.078Z,1018.51
2017-01-29T06:33:04.642Z,1018.53
2017-01-29T06:33:30.303Z,1018.45
2017-01-29T06:33:55.931Z,1018.49
2017-01-29T06:34:21.492Z,1018.51
2017-01-29T06:34:47.139Z,1018.51
2017-01-29T06:35:12.693Z,1018.48
2017-01-29T06:35:38.315Z,1018.51
2017-01-29T06:36:04.761Z,1018.52
2017-01-29T06:36:30.389Z,1018.48
2017-01-29T06:36:56.023Z,1018.47
2017-01-29T06:37:21.604Z,1018.47
2017-01-29T06:37:47.222Z,1018.47
2017-01-29T06:38:12.766Z,1018.47
2017-01-29T06:38:38.461Z,1018.44
2017-01-29T06:39:04.009Z,1018.45
2017-01-29T06:39:29.569Z,1018.45
2017-01-29T06:39:55.329Z,1018.42
2017-01-29T06:40:21.017Z,1018.46
2017-01-29T06:40:46.573Z,1018.44
2017-01-29T06:41:12.148Z,1018.43
2017-01-29T06:41:37.702Z,1018.45
2017-01-29T06:42:03.314Z,1018.43
2017-01-29T06:42:28.872Z,1018.42
2017-01-29T06:42:54.498Z,1018.44
2017-01-29T06:43:20.378Z,1018.44
2017-01-29T06:43:46.056Z,1018.41
2017-01-29T06:44:11.620Z,1018.42
2017-01-29T06:44:37.232Z,1018.45
2017-01-29T06:45:02.911Z,1018.47
2017-01-29T06:45:28.578Z,1018.48
2017-01-29T06:45:54.238Z,1018.5
2017-01-29T06:46:19.794Z,1018.49
2017-01-29T06:46:45.405Z,1018.47
2017-01-29T06:47:10.952Z,1018.46
2017-01-29T06:47:36.586Z,1018.44
2017-01-29T06:48:02.138Z,1018.46
2017-01-29T06:48:27.704Z,1018.46
2017-01-29T06:48:53.359Z,1018.47
2017-01-29T06:49:18.967Z,1018.46
2017-01-29T06:49:44.643Z,1018.43
2017-01-29T06:50:10.361Z,1018.46
2017-01-29T06:50:35.910Z,1018.47
2017-01-29T06:51:01.581Z,1018.46
2017-01-29T06:51:27.195Z,1018.45
2017-01-29T06:51:52.765Z,1018.45
2017-01-29T06:52:18.443Z,1018.48
2017-01-29T06:52:44.033Z,1018.51
2017-01-29T06:53:09.722Z,1018.48
2017-01-29T06:53:35.425Z,1018.5
2017-01-29T06:54:00.978Z,1018.45
2017-01-29T06:54:26.601Z,1018.48
2017-01-29T06:54:52.232Z,1018.49
2017-01-29T06:55:17.820Z,1018.49
2017-01-29T06:55:43.409Z,1018.5
2017-01-29T06:56:09.075Z,1018.5
2017-01-29T06:56:34.827Z,1018.51
2017-01-29T06:57:00.430Z,1018.52
2017-01-29T06:57:25.985Z,1018.54
2017-01-29T06:57:51.645Z,1018.55
2017-01-29T06:58:17.275Z,1018.56
2017-01-29T06:58:42.842Z,1018.53
2017-01-29T06:59:08.474Z,1018.56
2017-01-29T06:59:34.119Z,1018.56
2017-01-29T06:59:59.882Z,1018.58
2017-01-29T07:00:25.497Z,1018.58
2017-01-29T07:01:28.028Z,1018.52
2017-01-29T07:01:53.578Z,1018.52
2017-01-29T07:02:19.145Z,1018.5
2017-01-29T07:02:44.838Z,1018.51
2017-01-29T07:03:10.401Z,1018.48
2017-01-29T07:03:35.952Z,1018.52
2017-01-29T07:04:01.551Z,1018.49
2017-01-29T07:04:27.812Z,1018.48
2017-01-29T07:04:53.492Z,1018.47
2017-01-29T07:05:19.532Z,1018.48
2017-01-29T07:05:45.098Z,1018.45
2017-01-29T07:06:10.798Z,1018.47
2017-01-29T07:06:36.844Z,1018.52
2017-01-29T07:07:02.394Z,1018.48
2017-01-29T07:07:28.704Z,1018.48
2017-01-29T07:07:54.259Z,1018.43
2017-01-29T07:08:20.454Z,1018.5
2017-01-29T07:08:46.113Z,1018.47
2017-01-29T07:09:11.688Z,1018.48
2017-01-29T07:09:37.793Z,1018.46
2017-01-29T07:10:03.400Z,1018.45
2017-01-29T07:10:29.608Z,1018.46
2017-01-29T07:10:55.166Z,1018.46
2017-01-29T07:11:20.725Z,1018.52
2017-01-29T07:11:47.007Z,1018.47
2017-01-29T07:12:12.653Z,1018.49
2017-01-29T07:12:38.734Z,1018.5
2017-01-29T07:13:04.293Z,1018.51
2017-01-29T07:13:30.521Z,1018.5
2017-01-29T07:13:56.112Z,1018.53
2017-01-29T07:14:21.691Z,1018.48
2017-01-29T07:14:47.982Z,1018.47
2017-01-29T07:15:13.533Z,1018.46
2017-01-29T07:15:39.674Z,1018.51
2017-01-29T07:16:05.244Z,1018.49
2017-01-29T07:16:30.826Z,1018.46
2017-01-29T07:16:57.060Z,1018.48
2017-01-29T07:17:22.630Z,1018.48
2017-01-29T07:17:48.813Z,1018.48
2017-01-29T07:18:14.379Z,1018.48
2017-01-29T07:18:40.594Z,1018.47
2017-01-29T07:19:06.145Z,1018.47
2017-01-29T07:19:31.757Z,1018.45
2017-01-29T07:19:57.988Z,1018.49
2017-01-29T07:20:23.545Z,1018.47
2017-01-29T07:20:49.759Z,1018.47
2017-01-29T07:21:15.387Z,1018.48
2017-01-29T07:21:40.947Z,1018.5
2017-01-29T07:22:07.103Z,1018.49
2017-01-29T07:22:32.752Z,1018.46
2017-01-29T07:22:58.898Z,1018.5
2017-01-29T07:23:24.495Z,1018.5
2017-01-29T07:23:50.661Z,1018.47
2017-01-29T07:24:16.223Z,1018.49
2017-01-29T07:24:41.809Z,1018.48
2017-01-29T07:25:08.120Z,1018.48
2017-01-29T07:25:33.688Z,1018.5
2017-01-29T07:25:59.835Z,1018.51
2017-01-29T07:26:25.531Z,1018.51
2017-01-29T07:26:51.110Z,1018.5
2017-01-29T07:27:17.195Z,1018.51
2017-01-29T07:27:42.766Z,1018.53
2017-01-29T07:28:08.965Z,1018.53
2017-01-29T07:28:34.532Z,1018.54
2017-01-29T07:29:00.733Z,1018.52
2017-01-29T07:30:19.564Z,1018.56
2017-01-29T07:30:45.148Z,1018.53
2017-01-29T07:31:10.782Z,1018.59
2017-01-29T07:31:36.389Z,1018.59
2017-01-29T07:32:02.473Z,1018.58
2017-01-29T07:32:28.133Z,1018.58
2017-01-29T07:32:53.678Z,1018.53
2017-01-29T07:33:19.242Z,1018.54
2017-01-29T07:33:44.818Z,1018.52
2017-01-29T07:34:10.380Z,1018.53
2017-01-29T07:34:35.944Z,1018.56
2017-01-29T07:35:01.522Z,1018.51
2017-01-29T07:35:27.093Z,1018.51
2017-01-29T07:35:52.676Z,1018.58
2017-01-29T07:36:18.260Z,1018.54
2017-01-29T07:36:43.805Z,1018.54
2017-01-29T07:37:09.442Z,1018.54
2017-01-29T07:37:35.090Z,1018.53
2017-01-29T07:38:00.647Z,1018.57
2017-01-29T07:38:26.201Z,1018.56
2017-01-29T07:38:51.832Z,1018.52
2017-01-29T07:39:17.441Z,1018.5
2017-01-29T07:39:42.995Z,1018.56
2017-01-29T07:40:08.545Z,1018.57
2017-01-29T07:40:34.965Z,1018.57
2017-01-29T07:41:00.540Z,1018.55
2017-01-29T07:41:26.114Z,1018.57
2017-01-29T07:41:51.693Z,1018.61
2017-01-29T07:42:17.265Z,1018.55
2017-01-29T07:42:42.851Z,1018.59
2017-01-29T07:43:08.425Z,1018.58
2017-01-29T07:43:33.980Z,1018.56
2017-01-29T07:43:59.569Z,1018.6
2017-01-29T07:44:25.177Z,1018.61
2017-01-29T07:44:50.787Z,1018.61
2017-01-29T07:45:16.348Z,1018.6
2017-01-29T07:45:41.909Z,1018.61
2017-01-29T07:46:07.481Z,1018.59
2017-01-29T07:46:33.054Z,1018.64
2017-01-29T07:46:58.603Z,1018.57
2017-01-29T07:47:24.177Z,1018.6
2017-01-29T07:47:49.731Z,1018.59
2017-01-29T07:48:15.382Z,1018.63
2017-01-29T07:48:40.950Z,1018.55
2017-01-29T07:49:06.508Z,1018.52
2017-01-29T07:49:32.168Z,1018.56
2017-01-29T07:49:57.740Z,1018.56
2017-01-29T07:50:23.335Z,1018.57
2017-01-29T07:50:48.993Z,1018.59
2017-01-29T07:51:14.525Z,1018.61
2017-01-29T07:51:40.084Z,1018.59
2017-01-29T07:52:05.649Z,1018.58
2017-01-29T07:52:31.325Z,1018.6
2017-01-29T07:52:57.772Z,1018.6
2017-01-29T07:53:22.448Z,1018.56
2017-01-29T07:53:48.136Z,1018.54
2017-01-29T07:54:13.692Z,1018.59
2017-01-29T07:54:39.256Z,1018.56
2017-01-29T07:55:04.982Z,1018.62
2017-01-29T07:55:30.565Z,1018.56
2017-01-29T07:55:56.208Z,1018.57
2017-01-29T07:56:21.677Z,1018.61
2017-01-29T07:56:47.394Z,1018.58
2017-01-29T07:57:12.979Z,1018.58
2017-01-29T07:57:38.556Z,1018.56
2017-01-29T07:58:04.196Z,1018.6
2017-01-29T07:58:29.769Z,1018.57
2017-01-29T07:58:55.351Z,1018.6
2017-01-29T07:59:21.001Z,1018.54
2017-01-29T07:59:46.576Z,1018.55
2017-01-29T08:00:12.167Z,1018.54
2017-01-29T08:00:37.819Z,1018.53
2017-01-29T08:01:03.435Z,1018.53
2017-01-29T08:01:29.004Z,1018.5
2017-01-29T08:01:54.579Z,1018.53
2017-01-29T08:02:20.214Z,1018.55
2017-01-29T08:02:45.798Z,1018.55
2017-01-29T08:03:11.359Z,1018.57
2017-01-29T08:03:36.990Z,1018.59
2017-01-29T08:04:02.637Z,1018.59
2017-01-29T08:04:28.220Z,1018.56
2017-01-29T08:04:53.864Z,1018.57
2017-01-29T08:05:19.646Z,1018.63
2017-01-29T08:05:45.309Z,1018.62
2017-01-29T08:06:10.879Z,1018.66
2017-01-29T08:06:36.430Z,1018.65
2017-01-29T08:07:02.052Z,1018.62
2017-01-29T08:07:27.609Z,1018.61
2017-01-29T08:07:53.165Z,1018.61
2017-01-29T08:08:18.804Z,1018.59
2017-01-29T08:08:44.375Z,1018.59
2017-01-29T08:09:09.949Z,1018.62
2017-01-29T08:09:35.514Z,1018.61
2017-01-29T08:10:01.066Z,1018.6
2017-01-29T08:10:26.695Z,1018.63
2017-01-29T08:10:52.272Z,1018.59
2017-01-29T08:11:17.855Z,1018.59
2017-01-29T08:11:43.471Z,1018.65
2017-01-29T08:12:09.032Z,1018.65
2017-01-29T08:12:34.596Z,1018.64
2017-01-29T08:13:00.421Z,1018.65
2017-01-29T08:13:26.003Z,1018.65
2017-01-29T08:13:51.579Z,1018.67
2017-01-29T08:14:17.148Z,1018.68
2017-01-29T08:14:42.781Z,1018.68
2017-01-29T08:15:08.362Z,1018.65
2017-01-29T08:15:33.980Z,1018.66
2017-01-29T08:15:59.574Z,1018.67
2017-01-29T08:16:25.143Z,1018.67
2017-01-29T08:16:50.714Z,1018.69
2017-01-29T08:17:16.280Z,1018.63
2017-01-29T08:17:41.904Z,1018.62
2017-01-29T08:18:07.514Z,1018.58
2017-01-29T08:18:33.084Z,1018.56
2017-01-29T08:18:58.643Z,1018.57
2017-01-29T08:19:24.245Z,1018.53
2017-01-29T08:19:49.784Z,1018.5
2017-01-29T08:20:15.343Z,1018.49
2017-01-29T08:20:40.920Z,1018.56
2017-01-29T08:21:06.503Z,1018.55
2017-01-29T08:21:32.062Z,1018.53
2017-01-29T08:21:57.628Z,1018.56
2017-01-29T08:22:23.194Z,1018.55
2017-01-29T08:22:48.824Z,1018.56
2017-01-29T08:23:14.424Z,1018.58
2017-01-29T08:23:39.972Z,1018.56
2017-01-29T08:24:05.745Z,1018.56
2017-01-29T08:24:31.315Z,1018.56
2017-01-29T08:24:56.883Z,1018.56
2017-01-29T08:25:22.435Z,1018.57
2017-01-29T08:25:48.067Z,1018.6
2017-01-29T08:26:13.654Z,1018.57
2017-01-29T08:26:39.238Z,1018.51
2017-01-29T08:27:04.913Z,1018.62
2017-01-29T08:27:30.504Z,1018.6
2017-01-29T08:27:56.085Z,1018.63
2017-01-29T08:28:21.668Z,1018.63
2017-01-29T08:28:47.248Z,1018.58
2017-01-29T08:29:12.812Z,1018.61
2017-01-29T08:29:38.386Z,1018.56
2017-01-29T08:30:04.053Z,1018.59
2017-01-29T08:30:29.644Z,1018.62
2017-01-29T08:30:55.206Z,1018.6
2017-01-29T08:31:20.811Z,1018.58
2017-01-29T08:31:46.457Z,1018.63
2017-01-29T08:32:12.028Z,1018.62
2017-01-29T08:32:37.602Z,1018.62
2017-01-29T08:33:03.211Z,1018.62
2017-01-29T08:33:28.746Z,1018.68
2017-01-29T08:33:54.333Z,1018.64
2017-01-29T08:34:19.980Z,1018.66
2017-01-29T08:34:45.737Z,1018.67
2017-01-29T08:35:11.305Z,1018.68
2017-01-29T08:35:36.956Z,1018.65
2017-01-29T08:36:02.539Z,1018.64
2017-01-29T08:36:28.095Z,1018.65
2017-01-29T08:36:53.679Z,1018.63
2017-01-29T08:37:19.294Z,1018.6
2017-01-29T08:37:44.895Z,1018.58
2017-01-29T08:38:10.480Z,1018.62
2017-01-29T08:38:36.155Z,1018.6
2017-01-29T08:39:01.731Z,1018.62
2017-01-29T08:39:27.308Z,1018.63
2017-01-29T08:39:52.910Z,1018.62
2017-01-29T08:40:18.501Z,1018.65
2017-01-29T08:40:44.112Z,1018.68
2017-01-29T08:41:09.666Z,1018.65
2017-01-29T08:41:35.412Z,1018.66
2017-01-29T08:42:00.994Z,1018.58
2017-01-29T08:42:26.558Z,1018.63
2017-01-29T08:42:52.143Z,1018.68
2017-01-29T08:43:17.747Z,1018.64
2017-01-29T08:43:43.299Z,1018.62
2017-01-29T08:44:08.883Z,1018.67
2017-01-29T08:44:34.536Z,1018.65
2017-01-29T08:45:00.103Z,1018.6
2017-01-29T08:45:25.690Z,1018.58
2017-01-29T08:45:51.361Z,1018.63
2017-01-29T08:46:17.022Z,1018.62
2017-01-29T08:46:42.504Z,1018.63
2017-01-29T08:47:08.157Z,1018.58
2017-01-29T08:47:33.720Z,1018.58
2017-01-29T08:47:59.276Z,1018.59
2017-01-29T08:48:24.896Z,1018.58
2017-01-29T08:48:50.480Z,1018.59
2017-01-29T08:49:16.072Z,1018.6
2017-01-29T08:49:41.742Z,1018.57
2017-01-29T08:50:07.338Z,1018.56
2017-01-29T08:50:32.917Z,1018.55
2017-01-29T08:50:58.463Z,1018.56
2017-01-29T08:51:24.045Z,1018.55
2017-01-29T08:51:49.624Z,1018.54
2017-01-29T08:52:15.191Z,1018.52
2017-01-29T08:52:40.793Z,1018.54
2017-01-29T08:53:06.496Z,1018.57
2017-01-29T08:53:32.065Z,1018.57
2017-01-29T08:53:57.635Z,1018.55
2017-01-29T08:54:23.231Z,1018.54
2017-01-29T08:54:48.803Z,1018.51
2017-01-29T08:55:14.392Z,1018.5
2017-01-29T08:55:39.994Z,1018.52
2017-01-29T08:56:05.571Z,1018.54
2017-01-29T08:56:31.202Z,1018.5
2017-01-29T08:56:56.895Z,1018.53
2017-01-29T08:57:22.497Z,1018.51
2017-01-29T08:57:48.072Z,1018.5
2017-01-29T08:58:13.641Z,1018.49
2017-01-29T08:58:39.229Z,1018.55
2017-01-29T08:59:04.833Z,1018.51
2017-01-29T08:59:30.396Z,1018.5
2017-01-29T08:59:56.200Z,1018.54
2017-01-29T09:00:21.772Z,1018.54
2017-01-29T09:00:47.356Z,1018.55
2017-01-29T09:01:13.003Z,1018.55
2017-01-29T09:01:38.571Z,1018.53
2017-01-29T09:02:04.144Z,1018.58
2017-01-29T09:02:29.791Z,1018.57
2017-01-29T09:02:55.404Z,1018.55
2017-01-29T09:03:21.027Z,1018.56
2017-01-29T09:03:46.814Z,1018.56
2017-01-29T09:04:12.382Z,1018.58
2017-01-29T09:04:37.934Z,1018.55
2017-01-29T09:05:03.622Z,1018.58
2017-01-29T09:05:29.203Z,1018.57
2017-01-29T09:05:54.809Z,1018.58
2017-01-29T09:06:20.394Z,1018.57
2017-01-29T09:06:46.053Z,1018.58
2017-01-29T09:07:11.855Z,1018.58
2017-01-29T09:07:37.427Z,1018.55
2017-01-29T09:08:03.068Z,1018.51
2017-01-29T09:08:28.713Z,1018.51
2017-01-29T09:08:54.270Z,1018.48
2017-01-29T09:09:19.919Z,1018.51
2017-01-29T09:09:45.500Z,1018.45
2017-01-29T09:10:11.127Z,1018.48
2017-01-29T09:10:36.776Z,1018.45
2017-01-29T09:11:02.430Z,1018.45
2017-01-29T09:11:28.052Z,1018.43
2017-01-29T09:11:53.626Z,1018.45
2017-01-29T09:12:19.193Z,1018.44
2017-01-29T09:12:44.804Z,1018.43
2017-01-29T09:13:10.377Z,1018.45
2017-01-29T09:13:35.952Z,1018.52
2017-01-29T09:14:01.537Z,1018.45
2017-01-29T09:14:27.299Z,1018.44
2017-01-29T09:15:41.280Z,1018.4
2017-01-29T09:16:06.888Z,1018.42
2017-01-29T09:16:32.457Z,1018.43
2017-01-29T09:16:58.011Z,1018.45
2017-01-29T09:17:23.569Z,1018.43
2017-01-29T09:18:42.207Z,1018.48
2017-01-29T09:19:07.759Z,1018.44
2017-01-29T09:19:33.324Z,1018.53
2017-01-29T09:19:58.893Z,1018.47
2017-01-29T09:20:24.610Z,1018.47
2017-01-29T09:20:50.165Z,1018.42
2017-01-29T09:21:15.748Z,1018.43
2017-01-29T09:21:42.198Z,1018.45
2017-01-29T09:22:06.954Z,1018.46
2017-01-29T09:22:32.532Z,1018.36
2017-01-29T09:22:58.129Z,1018.43
2017-01-29T09:23:23.748Z,1018.36
2017-01-29T09:23:49.315Z,1018.36
2017-01-29T09:24:14.913Z,1018.38
2017-01-29T09:24:40.548Z,1018.38
2017-01-29T09:25:07.128Z,1018.42
2017-01-29T09:25:32.708Z,1018.4
2017-01-29T09:25:58.268Z,1018.41
2017-01-29T09:26:23.966Z,1018.4
2017-01-29T09:26:49.548Z,1018.39
2017-01-29T09:27:15.120Z,1018.43
2017-01-29T09:27:40.708Z,1018.42
2017-01-29T09:28:06.279Z,1018.44
2017-01-29T09:28:31.819Z,1018.49
2017-01-29T09:28:57.402Z,1018.45
2017-01-29T09:29:23.064Z,1018.48
2017-01-29T09:29:48.621Z,1018.46
2017-01-29T09:30:14.162Z,1018.46
2017-01-29T09:30:39.724Z,1018.48
2017-01-29T09:31:05.278Z,1018.48
2017-01-29T09:31:30.927Z,1018.47
2017-01-29T09:31:56.531Z,1018.49
2017-01-29T09:32:22.176Z,1018.5
2017-01-29T09:32:47.726Z,1018.48
2017-01-29T09:33:13.347Z,1018.5
2017-01-29T09:33:38.967Z,1018.49
2017-01-29T09:34:04.552Z,1018.47
2017-01-29T09:34:30.107Z,1018.45
2017-01-29T09:34:55.676Z,1018.48
2017-01-29T09:35:21.224Z,1018.5
2017-01-29T09:35:46.820Z,1018.46
2017-01-29T09:36:12.402Z,1018.5
2017-01-29T09:36:38.037Z,1018.47
2017-01-29T09:37:03.588Z,1018.43
2017-01-29T09:37:29.274Z,1018.45
2017-01-29T09:37:54.897Z,1018.43
2017-01-29T09:38:20.451Z,1018.47
2017-01-29T09:38:46.031Z,1018.45
2017-01-29T09:39:11.642Z,1018.5
2017-01-29T09:39:37.216Z,1018.46
2017-01-29T09:40:02.853Z,1018.53
2017-01-29T09:40:28.427Z,1018.47
2017-01-29T09:40:54.001Z,1018.48
2017-01-29T09:42:02.654Z,1018.5
2017-01-29T09:42:28.234Z,1018.49
2017-01-29T09:42:53.915Z,1018.47
2017-01-29T09:43:19.494Z,1018.5
2017-01-29T09:43:45.049Z,1018.47
2017-01-29T09:44:10.646Z,1018.48
2017-01-29T09:44:36.236Z,1018.44
2017-01-29T09:45:01.824Z,1018.48
2017-01-29T09:45:27.398Z,1018.52
2017-01-29T09:45:53.133Z,1018.5
2017-01-29T09:46:18.672Z,1018.53
2017-01-29T09:46:44.240Z,1018.45
2017-01-29T09:47:09.883Z,1018.45
2017-01-29T09:47:35.490Z,1018.47
2017-01-29T09:48:01.053Z,1018.45
2017-01-29T09:48:26.624Z,1018.42
2017-01-29T09:48:52.305Z,1018.47
2017-01-29T09:49:17.870Z,1018.54
2017-01-29T09:49:43.445Z,1018.55
2017-01-29T09:50:09.012Z,1018.51
2017-01-29T09:50:34.661Z,1018.49
2017-01-29T09:51:00.245Z,1018.55
2017-01-29T09:51:25.805Z,1018.55
2017-01-29T09:51:51.351Z,1018.55
2017-01-29T09:52:16.900Z,1018.55
2017-01-29T09:52:42.482Z,1018.5
2017-01-29T09:53:08.031Z,1018.53
2017-01-29T09:54:11.533Z,1018.49
2017-01-29T09:54:37.116Z,1018.51
2017-01-29T09:56:57.969Z,1018.43
2017-01-29T09:57:56.085Z,1018.49
2017-01-29T09:58:21.692Z,1018.48
2017-01-29T09:58:47.455Z,1018.48
2017-01-29T09:59:14.968Z,1018.47
2017-01-29T09:59:40.523Z,1018.5
2017-01-29T10:00:06.221Z,1018.52
2017-01-29T10:00:31.813Z,1018.5
2017-01-29T10:00:57.379Z,1018.46
2017-01-29T10:01:22.972Z,1018.45
2017-01-29T10:01:48.534Z,1018.47
2017-01-29T10:02:14.158Z,1018.45
2017-01-29T10:02:39.646Z,1018.45
2017-01-29T10:03:05.232Z,1018.48
2017-01-29T10:03:30.802Z,1018.43
2017-01-29T10:03:56.362Z,1018.41
2017-01-29T10:04:21.921Z,1018.42
2017-01-29T10:04:47.474Z,1018.4
2017-01-29T10:05:13.092Z,1018.44
2017-01-29T10:05:38.672Z,1018.42
2017-01-29T10:06:04.245Z,1018.42
2017-01-29T10:06:29.836Z,1018.42
2017-01-29T10:06:55.398Z,1018.43
2017-01-29T10:07:20.962Z,1018.38
2017-01-29T10:07:46.536Z,1018.39
2017-01-29T10:08:12.099Z,1018.39
2017-01-29T10:08:37.694Z,1018.39
2017-01-29T10:09:03.409Z,1018.41
2017-01-29T10:09:28.992Z,1018.43
2017-01-29T10:09:54.557Z,1018.4
2017-01-29T10:10:20.120Z,1018.43
2017-01-29T10:10:45.685Z,1018.45
2017-01-29T10:11:11.245Z,1018.47
2017-01-29T10:11:36.818Z,1018.48
2017-01-29T10:12:02.497Z,1018.45
2017-01-29T10:12:28.064Z,1018.45
2017-01-29T10:12:53.663Z,1018.45
2017-01-29T10:13:19.228Z,1018.42
2017-01-29T10:13:44.804Z,1018.46
2017-01-29T10:14:10.377Z,1018.5
2017-01-29T10:14:35.969Z,1018.48
2017-01-29T10:15:01.561Z,1018.56
2017-01-29T10:15:27.143Z,1018.55
2017-01-29T10:15:52.758Z,1018.59
2017-01-29T10:16:18.319Z,1018.6
2017-01-29T10:16:44.007Z,1018.59
2017-01-29T10:17:09.626Z,1018.59
2017-01-29T10:17:35.193Z,1018.58
2017-01-29T10:18:00.757Z,1018.57